createdAt,value
2019-04-25T00:01:01.222Z,7.40
2019-04-25T00:03:32.021Z,7.40
2019-04-25T00:06:02.252Z,7.40
2019-04-25T00:08:31.749Z,7.30
2019-04-25T00:11:01.845Z,7.30
2019-04-25T00:13:31.791Z,7.30
2019-04-25T00:16:01.851Z,7.30
2019-04-25T00:18:31.888Z,7.30
2019-04-25T00:21:06.217Z,7.30
2019-04-25T00:23:36.097Z,7.30
2019-04-25T00:26:11.676Z,7.30
2019-04-25T00:28:43.501Z,7.40
2019-04-25T00:31:11.973Z,7.50
2019-04-25T00:33:43.630Z,7.40
2019-04-25T00:36:12.049Z,7.40
2019-04-25T00:38:42.661Z,7.50
2019-04-25T00:41:11.663Z,7.30
2019-04-25T00:43:42.173Z,7.30
2019-04-25T00:46:11.495Z,7.30
2019-04-25T00:48:42.400Z,7.30
2019-04-25T00:51:11.815Z,7.20
2019-04-25T00:53:42.657Z,7.10
2019-04-25T00:56:12.012Z,7.30
2019-04-25T00:58:47.780Z,7.30
2019-04-25T01:01:35.945Z,7.40
2019-04-25T01:04:05.189Z,7.40
2019-04-25T01:06:34.497Z,7.30
2019-04-25T01:09:05.918Z,7.20
2019-04-25T01:11:34.765Z,7.20
2019-04-25T01:14:03.676Z,7.10
2019-04-25T01:16:32.929Z,7.20
2019-04-25T01:19:03.449Z,7.30
2019-04-25T01:21:33.941Z,7.20
2019-04-25T01:24:04.296Z,7.00
2019-04-25T01:26:33.943Z,7.00
2019-04-25T01:29:03.694Z,6.90
2019-04-25T01:31:33.909Z,6.90
2019-04-25T01:34:04.341Z,6.80
2019-04-25T01:36:55.890Z,6.90
2019-04-25T01:39:38.520Z,6.80
2019-04-25T01:42:20.743Z,6.70
2019-04-25T01:44:50.029Z,6.80
2019-04-25T01:47:20.221Z,6.60
2019-04-25T01:49:49.053Z,6.60
2019-04-25T01:52:18.048Z,6.60
2019-04-25T01:54:47.218Z,6.60
2019-04-25T01:57:16.621Z,6.70
2019-04-25T01:59:46.026Z,6.80
2019-04-25T02:02:20.143Z,7.00
2019-04-25T02:04:49.541Z,7.00
2019-04-25T02:07:18.452Z,7.00
2019-04-25T02:09:47.741Z,6.80
2019-04-25T02:12:23.569Z,6.70
2019-04-25T02:14:54.620Z,6.70
2019-04-25T02:17:24.171Z,6.70
2019-04-25T02:19:54.579Z,6.70
2019-04-25T02:22:24.314Z,6.70
2019-04-25T02:24:55.668Z,6.60
2019-04-25T02:27:24.269Z,6.50
2019-04-25T02:29:55.235Z,6.40
2019-04-25T02:32:24.971Z,6.40
2019-04-25T02:34:58.182Z,6.40
2019-04-25T02:37:25.658Z,6.40
2019-04-25T02:39:57.250Z,6.30
2019-04-25T02:42:25.982Z,6.30
2019-04-25T02:45:08.654Z,6.40
2019-04-25T02:47:56.225Z,6.20
2019-04-25T02:50:36.089Z,6.20
2019-04-25T02:53:26.918Z,6.20
2019-04-25T02:55:56.731Z,6.30
2019-04-25T02:58:26.473Z,6.40
2019-04-25T03:01:08.086Z,6.50
2019-04-25T03:03:27.877Z,6.50
2019-04-25T03:05:57.549Z,6.60
2019-04-25T03:08:27.012Z,6.50
2019-04-25T03:10:58.215Z,6.60
2019-04-25T03:13:26.722Z,6.60
2019-04-25T03:15:55.871Z,6.80
2019-04-25T03:18:26.464Z,6.80
2019-04-25T03:21:17.651Z,6.70
2019-04-25T03:23:48.778Z,6.70
2019-04-25T03:26:17.758Z,6.70
2019-04-25T03:28:46.605Z,6.80
2019-04-25T03:31:22.020Z,6.80
2019-04-25T03:33:46.497Z,6.70
2019-04-25T03:36:16.935Z,6.60
2019-04-25T03:38:46.174Z,6.80
2019-04-25T03:41:15.405Z,6.70
2019-04-25T03:43:44.781Z,6.70
2019-04-25T03:46:14.257Z,6.50
2019-04-25T03:48:44.106Z,6.50
2019-04-25T03:51:15.365Z,6.30
2019-04-25T03:53:44.532Z,6.30
2019-04-25T03:56:14.614Z,6.20
2019-04-25T03:58:44.090Z,6.40
2019-04-25T04:01:13.825Z,6.50
2019-04-25T04:03:43.978Z,6.50
2019-04-25T04:06:15.263Z,6.60
2019-04-25T04:08:44.281Z,6.70
2019-04-25T04:11:15.491Z,6.70
2019-04-25T04:13:44.557Z,6.70
2019-04-25T04:16:15.718Z,6.60
2019-04-25T04:18:46.371Z,6.60
2019-04-25T04:21:33.412Z,6.70
2019-04-25T04:24:25.829Z,6.60
2019-04-25T04:27:09.181Z,6.60
2019-04-25T04:29:39.036Z,6.50
2019-04-25T04:32:08.689Z,6.50
2019-04-25T04:34:37.664Z,6.70
2019-04-25T04:37:07.496Z,6.70
2019-04-25T04:39:36.496Z,6.60
2019-04-25T04:42:05.405Z,6.50
2019-04-25T04:44:34.432Z,6.50
2019-04-25T04:47:04.042Z,6.60
2019-04-25T04:49:34.106Z,6.70
2019-04-25T04:52:04.520Z,6.50
2019-04-25T04:54:34.437Z,6.50
2019-04-25T04:57:16.759Z,6.40
2019-04-25T04:59:34.064Z,6.60
2019-04-25T05:02:15.832Z,6.60
2019-04-25T05:05:06.388Z,6.70
2019-04-25T05:07:47.920Z,6.80
2019-04-25T05:10:18.652Z,6.70
2019-04-25T05:12:47.704Z,6.70
2019-04-25T05:15:17.905Z,6.60
2019-04-25T05:17:47.433Z,6.50
2019-04-25T05:20:17.597Z,6.50
2019-04-25T05:22:47.651Z,6.60
2019-04-25T05:25:17.831Z,6.60
2019-04-25T05:28:00.086Z,6.70
2019-04-25T05:30:26.466Z,6.80
2019-04-25T05:32:54.533Z,6.80
2019-04-25T05:35:24.297Z,6.80
2019-04-25T05:37:54.155Z,6.80
2019-04-25T05:40:24.442Z,6.90
2019-04-25T05:43:03.288Z,7.10
2019-04-25T05:45:34.007Z,7.20
2019-04-25T05:48:04.270Z,7.30
2019-04-25T05:50:34.141Z,7.40
2019-04-25T05:53:04.306Z,7.60
2019-04-25T05:55:34.116Z,7.60
2019-04-25T05:58:03.868Z,7.70
2019-04-25T06:00:34.032Z,7.70
2019-04-25T06:03:03.665Z,7.80
2019-04-25T06:05:34.113Z,7.90
2019-04-25T06:08:04.373Z,7.90
2019-04-25T06:10:53.861Z,8.00
2019-04-25T06:14:00.439Z,7.90
2019-04-25T06:16:39.512Z,8.00
2019-04-25T06:19:20.698Z,8.10
2019-04-25T06:21:50.222Z,8.10
2019-04-25T06:24:34.343Z,8.20
2019-04-25T06:27:25.902Z,8.30
2019-04-25T06:30:24.960Z,8.40
2019-04-25T06:32:55.276Z,8.50
2019-04-25T06:35:25.147Z,8.60
2019-04-25T06:37:55.324Z,8.70
2019-04-25T06:40:25.177Z,8.90
2019-04-25T06:42:55.241Z,8.90
2019-04-25T06:45:36.262Z,9.10
2019-04-25T06:48:24.676Z,9.20
2019-04-25T06:50:53.799Z,9.30
2019-04-25T06:53:24.752Z,9.40
2019-04-25T06:55:54.157Z,9.50
2019-04-25T06:58:25.656Z,9.70
2019-04-25T07:00:58.855Z,9.90
2019-04-25T07:03:25.138Z,10.10
2019-04-25T07:05:55.438Z,10.20
2019-04-25T07:08:25.748Z,10.30
2019-04-25T07:10:55.429Z,10.50
2019-04-25T07:13:25.622Z,10.60
2019-04-25T07:15:54.882Z,10.70
2019-04-25T07:18:29.233Z,10.90
2019-04-25T07:20:54.938Z,11.10
2019-04-25T07:23:25.364Z,11.30
2019-04-25T07:26:01.345Z,11.50
2019-04-25T07:28:44.650Z,11.70
2019-04-25T07:31:29.062Z,12.10
2019-04-25T07:34:14.587Z,12.40
2019-04-25T07:36:43.443Z,12.80
2019-04-25T07:39:13.440Z,13.30
2019-04-25T07:41:44.139Z,13.60
2019-04-25T07:44:14.684Z,14.00
2019-04-25T07:46:43.945Z,14.60
2019-04-25T07:49:13.460Z,15.20
2019-04-25T07:51:43.220Z,15.60
2019-04-25T07:54:14.319Z,16.20
2019-04-25T07:56:43.796Z,16.80
2019-04-25T07:59:13.845Z,17.10
2019-04-25T08:01:43.708Z,17.60
2019-04-25T08:04:13.681Z,18.10
2019-04-25T08:06:44.535Z,18.50
2019-04-25T08:09:14.224Z,18.90
2019-04-25T08:11:44.698Z,19.70
2019-04-25T08:14:25.550Z,19.60
2019-04-25T08:16:56.743Z,19.60
2019-04-25T08:19:26.482Z,19.70
2019-04-25T08:21:57.324Z,20.20
2019-04-25T08:24:27.327Z,20.20
2019-04-25T08:26:57.049Z,20.40
2019-04-25T08:29:26.377Z,20.60
2019-04-25T08:31:55.322Z,20.90
2019-04-25T08:34:24.398Z,21.40
2019-04-25T08:36:54.291Z,21.00
2019-04-25T08:39:24.212Z,21.30
2019-04-25T08:41:53.912Z,21.60
2019-04-25T08:44:24.178Z,21.20
2019-04-25T08:46:53.918Z,20.70
2019-04-25T08:49:33.260Z,20.40
2019-04-25T08:52:04.169Z,20.10
2019-04-25T08:54:57.494Z,19.90
2019-04-25T08:57:45.119Z,19.60
2019-04-25T09:00:25.962Z,19.50
2019-04-25T09:02:59.406Z,19.70
2019-04-25T09:05:42.248Z,20.10
2019-04-25T09:08:12.189Z,20.20
2019-04-25T09:10:41.339Z,19.70
2019-04-25T09:13:10.341Z,20.40
2019-04-25T09:15:39.463Z,20.40
2019-04-25T09:18:08.602Z,20.60
2019-04-25T09:20:39.611Z,21.40
2019-04-25T09:23:08.483Z,21.60
2019-04-25T09:25:38.574Z,21.10
2019-04-25T09:28:07.958Z,21.00
2019-04-25T09:30:37.094Z,21.30
2019-04-25T09:33:06.648Z,21.00
2019-04-25T09:35:36.246Z,21.40
2019-04-25T09:38:05.830Z,21.80
2019-04-25T09:40:35.923Z,22.10
2019-04-25T09:43:05.319Z,22.30
2019-04-25T09:46:08.596Z,22.00
2019-04-25T09:48:59.352Z,21.80
2019-04-25T09:51:40.944Z,22.20
2019-04-25T09:54:33.909Z,22.70
2019-04-25T09:57:21.220Z,22.30
2019-04-25T09:59:50.522Z,22.60
2019-04-25T10:02:19.829Z,22.10
2019-04-25T10:04:49.719Z,22.70
2019-04-25T10:07:19.139Z,22.80
2019-04-25T10:09:48.353Z,22.40
2019-04-25T10:12:17.501Z,22.30
2019-04-25T10:14:59.670Z,22.60
2019-04-25T10:17:29.154Z,22.60
2019-04-25T10:19:58.099Z,22.80
2019-04-25T10:22:28.214Z,23.30
2019-04-25T10:25:00.574Z,23.20
2019-04-25T10:27:28.079Z,22.70
2019-04-25T10:29:57.288Z,22.70
2019-04-25T10:32:26.454Z,22.60
2019-04-25T10:34:55.412Z,23.00
2019-04-25T10:37:24.451Z,22.90
2019-04-25T10:39:55.280Z,22.90
2019-04-25T10:42:24.216Z,22.60
2019-04-25T10:44:56.400Z,22.80
2019-04-25T10:47:23.940Z,23.10
2019-04-25T10:49:55.255Z,23.50
2019-04-25T10:52:24.026Z,23.80
2019-04-25T10:54:54.285Z,24.10
2019-04-25T10:57:26.112Z,24.40
2019-04-25T11:00:05.918Z,24.40
2019-04-25T11:02:25.587Z,24.30
2019-04-25T11:05:00.099Z,24.30
2019-04-25T11:07:29.244Z,24.50
2019-04-25T11:09:58.204Z,24.40
2019-04-25T11:12:27.254Z,24.30
2019-04-25T11:14:56.314Z,24.40
2019-04-25T11:17:25.348Z,24.60
2019-04-25T11:19:55.448Z,24.60
2019-04-25T11:22:25.128Z,24.70
2019-04-25T11:24:55.089Z,24.70
2019-04-25T11:27:24.196Z,24.70
2019-04-25T11:29:58.174Z,24.90
2019-04-25T11:32:26.569Z,24.80
2019-04-25T11:34:55.889Z,24.70
2019-04-25T11:37:26.690Z,24.70
2019-04-25T11:40:07.915Z,24.50
2019-04-25T11:42:36.846Z,24.60
2019-04-25T11:45:07.116Z,24.70
2019-04-25T11:47:36.313Z,24.60
2019-04-25T11:50:07.601Z,24.30
2019-04-25T11:52:36.870Z,24.10
2019-04-25T11:55:06.888Z,23.90
2019-04-25T11:57:35.937Z,23.80
2019-04-25T12:00:05.955Z,23.60
2019-04-25T12:02:34.801Z,23.70
2019-04-25T12:05:04.085Z,23.50
2019-04-25T12:07:34.246Z,23.70
2019-04-25T12:10:03.726Z,23.60
2019-04-25T12:12:34.132Z,23.60
2019-04-25T12:15:04.440Z,23.50
2019-04-25T12:17:35.166Z,23.60
2019-04-25T12:20:04.342Z,23.40
2019-04-25T12:22:34.305Z,23.50
2019-04-25T12:25:04.679Z,23.60
2019-04-25T12:27:33.768Z,23.40
2019-04-25T12:30:05.122Z,23.30
2019-04-25T12:32:35.072Z,23.30
2019-04-25T12:35:06.183Z,23.30
2019-04-25T12:37:35.268Z,23.50
2019-04-25T12:40:06.304Z,23.50
2019-04-25T12:42:35.573Z,23.60
2019-04-25T12:45:14.828Z,23.50
2019-04-25T12:47:46.423Z,23.30
2019-04-25T12:50:18.584Z,23.30
2019-04-25T12:52:46.811Z,23.30
2019-04-25T12:55:16.930Z,23.30
2019-04-25T12:57:45.848Z,23.40
2019-04-25T13:00:18.393Z,23.30
2019-04-25T13:02:47.594Z,23.30
2019-04-25T13:05:16.525Z,23.30
2019-04-25T13:07:45.854Z,23.20
2019-04-25T13:10:15.409Z,23.20
2019-04-25T13:12:45.108Z,23.40
2019-04-25T13:15:14.488Z,23.20
2019-04-25T13:17:43.736Z,23.10
2019-04-25T13:20:13.569Z,23.10
2019-04-25T13:22:43.233Z,23.20
2019-04-25T13:25:14.349Z,23.30
2019-04-25T13:27:53.821Z,23.20
2019-04-25T13:30:40.238Z,23.10
2019-04-25T13:33:26.882Z,23.10
2019-04-25T13:36:02.800Z,23.20
2019-04-25T13:38:31.665Z,23.30
2019-04-25T13:41:01.540Z,23.30
2019-04-25T13:43:30.891Z,23.40
2019-04-25T13:45:59.909Z,23.30
2019-04-25T13:48:29.451Z,23.40
2019-04-25T13:50:58.902Z,23.40
2019-04-25T13:53:28.075Z,23.30
2019-04-25T13:55:56.988Z,23.30
2019-04-25T13:58:26.684Z,23.30
2019-04-25T14:00:56.853Z,23.40
2019-04-25T14:03:27.293Z,23.50
2019-04-25T14:05:56.738Z,23.30
2019-04-25T14:08:26.939Z,23.30
2019-04-25T14:10:56.265Z,23.30
2019-04-25T14:13:26.466Z,23.40
2019-04-25T14:16:03.590Z,23.40
2019-04-25T14:18:55.297Z,23.20
2019-04-25T14:21:25.976Z,23.10
2019-04-25T14:23:55.158Z,23.00
2019-04-25T14:26:25.059Z,23.00
2019-04-25T14:28:54.231Z,22.90
2019-04-25T14:31:41.012Z,22.80
2019-04-25T14:33:55.501Z,22.50
2019-04-25T14:36:26.014Z,22.30
2019-04-25T14:38:55.156Z,22.10
2019-04-25T14:41:24.425Z,22.00
2019-04-25T14:43:53.629Z,21.90
2019-04-25T14:46:22.927Z,21.80
2019-04-25T14:48:51.766Z,21.80
2019-04-25T14:51:20.616Z,21.80
2019-04-25T14:53:49.810Z,21.80
2019-04-25T14:56:26.277Z,21.80
2019-04-25T14:58:55.186Z,21.80
2019-04-25T15:01:24.393Z,21.70
2019-04-25T15:03:53.388Z,21.80
2019-04-25T15:06:22.244Z,21.90
2019-04-25T15:08:51.306Z,21.90
2019-04-25T15:11:20.353Z,21.90
2019-04-25T15:13:49.642Z,21.90
2019-04-25T15:16:19.146Z,21.90
2019-04-25T15:18:48.073Z,21.90
2019-04-25T15:21:18.756Z,21.90
2019-04-25T15:23:59.327Z,21.80
2019-04-25T15:26:18.293Z,21.70
2019-04-25T15:28:47.390Z,21.60
2019-04-25T15:31:16.357Z,21.50
2019-04-25T15:33:46.149Z,21.30
2019-04-25T15:36:30.564Z,21.40
2019-04-25T15:39:18.721Z,21.30
2019-04-25T15:41:55.768Z,21.40
2019-04-25T15:44:52.823Z,21.30
2019-04-25T15:47:26.450Z,21.10
2019-04-25T15:49:55.521Z,20.90
2019-04-25T15:52:26.670Z,20.80
2019-04-25T15:55:06.573Z,20.80
2019-04-25T15:57:27.059Z,20.70
2019-04-25T15:59:57.086Z,20.70
2019-04-25T16:02:26.100Z,20.70
2019-04-25T16:04:54.944Z,20.60
2019-04-25T16:07:24.222Z,20.70
2019-04-25T16:09:53.154Z,20.70
2019-04-25T16:12:22.250Z,20.80
2019-04-25T16:14:51.171Z,20.90
2019-04-25T16:17:20.037Z,20.90
2019-04-25T16:19:49.313Z,20.90
2019-04-25T16:22:18.160Z,20.80
2019-04-25T16:24:47.473Z,20.90
2019-04-25T16:27:16.584Z,20.80
2019-04-25T16:29:45.765Z,20.70
2019-04-25T16:32:20.878Z,20.60
2019-04-25T16:34:49.591Z,20.50
2019-04-25T16:37:18.798Z,20.30
2019-04-25T16:39:47.898Z,20.30
2019-04-25T16:42:16.885Z,20.30
2019-04-25T16:44:46.178Z,20.20
2019-04-25T16:47:16.772Z,20.10
2019-04-25T16:49:45.707Z,20.00
2019-04-25T16:52:17.605Z,20.00
2019-04-25T16:54:45.862Z,20.00
2019-04-25T16:57:14.798Z,19.90
2019-04-25T16:59:43.949Z,19.70
2019-04-25T17:02:16.106Z,19.70
2019-04-25T17:04:45.173Z,19.60
2019-04-25T17:07:15.001Z,19.50
2019-04-25T17:09:44.127Z,19.60
2019-04-25T17:12:13.157Z,19.40
2019-04-25T17:15:10.657Z,19.20
2019-04-25T17:17:50.123Z,19.20
2019-04-25T17:20:42.025Z,19.00
2019-04-25T17:23:11.740Z,18.80
2019-04-25T17:25:40.661Z,18.70
2019-04-25T17:28:10.076Z,18.70
2019-04-25T17:30:40.818Z,18.60
2019-04-25T17:33:20.163Z,18.30
2019-04-25T17:35:57.637Z,18.20
2019-04-25T17:38:42.253Z,18.00
2019-04-25T17:41:11.258Z,17.90
2019-04-25T17:43:40.266Z,17.70
2019-04-25T17:46:11.016Z,17.50
2019-04-25T17:48:40.508Z,17.50
2019-04-25T17:51:09.649Z,17.40
2019-04-25T17:53:39.097Z,17.30
2019-04-25T17:56:08.151Z,17.10
2019-04-25T17:58:37.004Z,17.00
2019-04-25T18:01:06.954Z,16.90
2019-04-25T18:03:35.881Z,16.80
2019-04-25T18:06:04.869Z,16.60
2019-04-25T18:08:34.465Z,16.40
2019-04-25T18:11:04.649Z,16.30
2019-04-25T18:13:34.446Z,16.20
2019-04-25T18:16:12.632Z,16.10
2019-04-25T18:19:03.528Z,16.00
2019-04-25T18:21:32.593Z,16.00
2019-04-25T18:24:36.572Z,16.00
2019-04-25T18:27:27.720Z,16.00
2019-04-25T18:29:56.569Z,15.80
2019-04-25T18:32:27.393Z,15.70
2019-04-25T18:35:07.540Z,15.60
2019-04-25T18:37:53.632Z,15.60
2019-04-25T18:40:31.765Z,15.60
2019-04-25T18:43:13.718Z,15.50
2019-04-25T18:45:45.241Z,15.50
2019-04-25T18:48:14.485Z,15.40
2019-04-25T18:50:44.616Z,15.40
2019-04-25T18:53:41.681Z,15.20
2019-04-25T18:56:25.760Z,15.20
2019-04-25T18:59:20.189Z,15.00
2019-04-25T19:02:15.839Z,15.00
2019-04-25T19:04:55.706Z,15.00
2019-04-25T19:07:24.647Z,14.90
2019-04-25T19:09:53.961Z,14.80
2019-04-25T19:12:22.806Z,14.80
2019-04-25T19:14:51.785Z,14.70
2019-04-25T19:17:20.737Z,14.70
2019-04-25T19:19:49.662Z,14.60
2019-04-25T19:22:18.849Z,14.60
2019-04-25T19:24:48.676Z,14.60
2019-04-25T19:27:23.572Z,14.50
2019-04-25T19:29:49.152Z,14.40
2019-04-25T19:32:18.169Z,14.40
2019-04-25T19:34:47.033Z,14.40
2019-04-25T19:37:16.261Z,14.40
2019-04-25T19:39:50.250Z,14.30
2019-04-25T19:42:24.953Z,14.30
2019-04-25T19:44:53.809Z,14.20
2019-04-25T19:47:22.729Z,14.20
2019-04-25T19:49:51.900Z,14.20
2019-04-25T19:52:20.922Z,14.10
2019-04-25T19:54:49.811Z,14.10
2019-04-25T19:57:19.065Z,14.00
2019-04-25T19:59:48.457Z,14.00
2019-04-25T20:02:27.282Z,14.00
2019-04-25T20:05:06.805Z,13.80
2019-04-25T20:07:45.492Z,13.80
2019-04-25T20:10:36.941Z,13.70
2019-04-25T20:13:05.788Z,13.60
2019-04-25T20:15:34.716Z,13.50
2019-04-25T20:18:03.958Z,13.40
2019-04-25T20:20:32.898Z,13.40
2019-04-25T20:23:01.906Z,13.30
2019-04-25T20:25:31.114Z,13.20
2019-04-25T20:28:00.030Z,13.10
2019-04-25T20:30:29.332Z,13.10
2019-04-25T20:32:58.637Z,13.00
2019-04-25T20:35:27.583Z,13.00
2019-04-25T20:37:56.561Z,12.90
2019-04-25T20:40:25.553Z,12.80
2019-04-25T20:42:54.408Z,12.70
2019-04-25T20:45:50.054Z,12.60
2019-04-25T20:48:19.729Z,12.60
2019-04-25T20:50:48.589Z,12.50
2019-04-25T20:53:17.580Z,12.60
2019-04-25T20:55:47.424Z,12.60
2019-04-25T20:58:16.737Z,12.40
2019-04-25T21:00:49.575Z,12.50
2019-04-25T21:03:18.444Z,12.50
2019-04-25T21:05:49.696Z,12.50
2019-04-25T21:08:19.556Z,12.50
2019-04-25T21:10:50.456Z,12.60
2019-04-25T21:13:26.976Z,12.60
2019-04-25T21:16:15.034Z,12.60
2019-04-25T21:18:55.446Z,12.50
2019-04-25T21:21:24.691Z,12.40
2019-04-25T21:23:53.535Z,12.30
2019-04-25T21:26:22.401Z,12.20
2019-04-25T21:28:52.045Z,12.20
2019-04-25T21:31:21.229Z,12.20
2019-04-25T21:33:50.571Z,12.20
2019-04-25T21:36:20.782Z,12.20
2019-04-25T21:38:49.902Z,12.20
2019-04-25T21:41:41.018Z,12.20
2019-04-25T21:44:10.136Z,12.20
2019-04-25T21:46:39.352Z,12.30
2019-04-25T21:49:08.646Z,12.40
2019-04-25T21:51:37.523Z,12.40
2019-04-25T21:54:06.432Z,12.40
2019-04-25T21:56:35.557Z,12.40
2019-04-25T21:59:04.865Z,12.40
2019-04-25T22:01:36.733Z,12.50
2019-04-25T22:04:06.205Z,12.50
2019-04-25T22:06:35.858Z,12.50
2019-04-25T22:09:09.937Z,12.40
2019-04-25T22:11:39.608Z,12.50
2019-04-25T22:14:09.276Z,12.50
2019-04-25T22:16:38.877Z,12.50
2019-04-25T22:19:09.774Z,12.50
2019-04-25T22:21:39.155Z,12.50
2019-04-25T22:24:11.067Z,12.40
2019-04-25T22:26:38.960Z,12.40
2019-04-25T22:29:08.367Z,12.40
2019-04-25T22:31:44.529Z,12.40
2019-04-25T22:34:18.531Z,12.30
2019-04-25T22:36:47.996Z,12.30
2019-04-25T22:39:16.905Z,12.20
2019-04-25T22:41:47.951Z,12.10
2019-04-25T22:44:18.945Z,12.00
2019-04-25T22:46:48.072Z,12.00
2019-04-25T22:49:17.061Z,11.90
2019-04-25T22:51:46.341Z,11.90
2019-04-25T22:54:15.897Z,11.90
2019-04-25T22:56:45.097Z,11.90
2019-04-25T22:59:14.456Z,11.90
2019-04-25T23:02:05.473Z,11.80
2019-04-25T23:04:42.733Z,11.80
2019-04-25T23:07:12.286Z,11.90
2019-04-25T23:09:41.502Z,11.90
2019-04-25T23:12:11.313Z,12.00
2019-04-25T23:14:40.641Z,11.80
2019-04-25T23:17:09.558Z,11.70
2019-04-25T23:19:38.706Z,11.60
2019-04-25T23:22:07.876Z,11.40
2019-04-25T23:24:39.157Z,11.50
2019-04-25T23:27:26.906Z,11.40
2019-04-25T23:29:55.795Z,11.40
2019-04-25T23:32:24.961Z,11.40
2019-04-25T23:34:53.868Z,11.60
2019-04-25T23:37:23.061Z,11.60
2019-04-25T23:39:52.257Z,11.50
2019-04-25T23:42:21.457Z,11.50
2019-04-25T23:44:50.888Z,11.50
2019-04-25T23:47:20.153Z,11.50
2019-04-25T23:49:49.089Z,11.40
2019-04-25T23:52:18.377Z,11.40
2019-04-25T23:54:47.552Z,11.40
2019-04-25T23:57:17.767Z,11.40
2019-04-25T23:59:47.183Z,11.40
